createdAt,value
2023-06-27T00:02:17.636Z,5.32
2023-06-27T00:04:47.061Z,6.07
2023-06-27T00:07:15.350Z,5.35
2023-06-27T00:09:43.381Z,5.72
2023-06-27T00:12:11.962Z,5.53
2023-06-27T00:14:41.941Z,5.72
2023-06-27T00:17:12.330Z,4.78
2023-06-27T00:19:40.318Z,4.65
2023-06-27T00:22:10.950Z,5.55
2023-06-27T00:24:39.103Z,4.78
2023-06-27T00:27:10.251Z,4.85
2023-06-27T00:29:38.184Z,6.65
2023-06-27T00:32:07.102Z,7.45
2023-06-27T00:34:35.045Z,5.03
2023-06-27T00:37:03.241Z,5.47
2023-06-27T00:39:34.326Z,5.78
2023-06-27T00:42:02.294Z,7.30
2023-06-27T00:44:30.311Z,6.28
2023-06-27T00:46:58.350Z,6.80
2023-06-27T00:49:26.477Z,5.53
2023-06-27T00:51:56.263Z,7.57
2023-06-27T00:54:25.625Z,5.38
2023-06-27T00:56:55.445Z,4.82
2023-06-27T00:59:23.465Z,4.82
2023-06-27T01:01:51.455Z,14.63
2023-06-27T01:04:19.431Z,7.32
2023-06-27T01:06:58.091Z,6.07
2023-06-27T01:09:31.245Z,6.65
2023-06-27T01:12:10.962Z,7.35
2023-06-27T01:14:41.370Z,6.82
2023-06-27T01:19:39.592Z,10.40
2023-06-27T01:22:14.026Z,6.45
2023-06-27T01:24:44.789Z,6.82
2023-06-27T01:27:13.566Z,7.90
2023-06-27T01:29:42.486Z,6.05
2023-06-27T01:32:19.473Z,6.45
2023-06-27T01:34:57.252Z,8.02
2023-06-27T01:37:30.911Z,14.45
2023-06-27T01:40:05.854Z,7.80
2023-06-27T01:42:37.296Z,8.55
2023-06-27T01:45:06.658Z,10.35
2023-06-27T01:47:37.561Z,6.95
2023-06-27T01:50:06.329Z,8.07
2023-06-27T01:52:34.641Z,8.43
2023-06-27T01:55:04.538Z,7.95
2023-06-27T01:57:32.719Z,6.22
2023-06-27T02:00:00.829Z,7.65
2023-06-27T02:02:28.888Z,6.85
2023-06-27T02:04:56.939Z,6.85
2023-06-27T02:07:24.896Z,6.95
2023-06-27T02:09:52.994Z,9.18
2023-06-27T02:12:22.350Z,7.13
2023-06-27T02:14:50.282Z,5.55
2023-06-27T02:17:18.305Z,5.95
2023-06-27T02:19:46.275Z,11.25
2023-06-27T02:22:14.236Z,6.72
2023-06-27T02:24:42.165Z,6.15
2023-06-27T02:27:10.065Z,8.85
2023-06-27T02:29:39.457Z,7.20
2023-06-27T02:32:08.732Z,8.05
2023-06-27T02:34:36.723Z,11.50
2023-06-27T02:37:04.966Z,9.65
2023-06-27T02:39:32.875Z,7.85
2023-06-27T02:42:00.907Z,6.97
2023-06-27T02:44:28.888Z,8.75
2023-06-27T02:46:58.235Z,8.30
2023-06-27T02:49:26.174Z,10.38
2023-06-27T02:51:54.118Z,11.60
2023-06-27T02:54:22.041Z,10.25
2023-06-27T02:56:49.933Z,8.35
2023-06-27T02:59:18.019Z,10.15
2023-06-27T03:01:46.016Z,10.10
2023-06-27T03:04:22.433Z,12.00
2023-06-27T03:06:50.773Z,8.77
2023-06-27T03:09:19.896Z,7.65
2023-06-27T03:11:48.087Z,7.75
2023-06-27T03:14:18.497Z,11.05
2023-06-27T03:19:15.490Z,8.32
2023-06-27T03:21:43.415Z,10.15
2023-06-27T03:24:14.024Z,8.27
2023-06-27T03:26:42.008Z,8.43
2023-06-27T03:29:10.058Z,8.40
2023-06-27T03:31:38.020Z,8.25
2023-06-27T03:34:05.973Z,8.55
2023-06-27T03:36:35.533Z,18.33
2023-06-27T03:39:05.822Z,14.07
2023-06-27T03:41:33.861Z,14.25
2023-06-27T03:44:02.705Z,13.43
2023-06-27T03:46:30.651Z,13.95
2023-06-27T03:49:00.023Z,19.42
2023-06-27T03:51:28.492Z,19.35
2023-06-27T03:53:57.806Z,21.73
2023-06-27T03:56:25.810Z,16.85
2023-06-27T03:58:53.755Z,17.65
2023-06-27T04:01:21.761Z,17.90
2023-06-27T04:03:49.789Z,16.55
2023-06-27T04:06:18.314Z,18.27
2023-06-27T04:08:46.353Z,15.23
2023-06-27T04:11:15.647Z,16.75
2023-06-27T04:13:43.573Z,15.02
2023-06-27T04:16:11.521Z,15.15
2023-06-27T04:18:39.504Z,12.90
2023-06-27T04:21:07.434Z,13.05
2023-06-27T04:23:35.462Z,15.55
2023-06-27T04:26:05.612Z,13.23
2023-06-27T04:28:35.314Z,12.77
2023-06-27T04:31:04.187Z,13.25
2023-06-27T04:33:32.376Z,15.07
2023-06-27T04:36:02.822Z,12.13
2023-06-27T04:38:31.858Z,12.02
2023-06-27T04:40:59.850Z,12.48
2023-06-27T04:43:28.431Z,12.30
2023-06-27T04:45:57.823Z,13.57
2023-06-27T04:48:25.725Z,12.00
2023-06-27T04:50:55.105Z,12.25
2023-06-27T04:53:23.130Z,14.10
2023-06-27T04:55:51.466Z,16.23
2023-06-27T04:58:19.895Z,13.27
2023-06-27T05:00:48.435Z,15.48
2023-06-27T05:03:18.833Z,15.48
2023-06-27T05:08:14.760Z,15.60
2023-06-27T05:10:42.773Z,19.70
2023-06-27T05:13:10.765Z,19.48
2023-06-27T05:15:39.054Z,17.48
2023-06-27T05:18:27.974Z,22.10
2023-06-27T05:20:56.969Z,21.38
2023-06-27T05:23:25.017Z,18.65
2023-06-27T05:25:52.933Z,19.23
2023-06-27T05:28:20.847Z,17.83
2023-06-27T05:30:49.121Z,15.68
2023-06-27T05:33:17.216Z,16.20
2023-06-27T05:35:46.532Z,16.08
2023-06-27T05:38:14.531Z,14.90
2023-06-27T05:40:42.459Z,14.60
2023-06-27T05:43:10.646Z,12.32
2023-06-27T05:45:39.161Z,13.18
2023-06-27T05:48:07.734Z,12.13
2023-06-27T05:50:35.676Z,15.50
2023-06-27T05:53:07.164Z,12.68
2023-06-27T05:55:35.208Z,10.95
2023-06-27T05:58:03.159Z,11.02
2023-06-27T06:00:31.269Z,13.20
2023-06-27T06:02:59.232Z,10.65
2023-06-27T06:05:27.246Z,9.65
2023-06-27T06:07:55.171Z,7.50
2023-06-27T06:10:25.106Z,7.75
2023-06-27T06:12:53.172Z,6.47
2023-06-27T06:15:21.157Z,7.97
2023-06-27T06:17:49.243Z,8.57
2023-06-27T06:20:17.222Z,5.75
2023-06-27T06:22:45.275Z,6.72
2023-06-27T06:25:13.291Z,6.05
2023-06-27T06:27:42.566Z,7.07
2023-06-27T06:30:11.476Z,5.35
2023-06-27T06:32:39.543Z,5.45
2023-06-27T06:35:08.719Z,4.90
2023-06-27T06:37:37.859Z,6.45
2023-06-27T06:40:07.261Z,6.50
2023-06-27T06:42:35.211Z,5.88
2023-06-27T06:45:05.547Z,5.00
2023-06-27T06:47:33.694Z,5.13
2023-06-27T06:50:01.737Z,4.95
2023-06-27T06:52:29.624Z,6.00
2023-06-27T06:54:57.609Z,4.38
2023-06-27T06:57:25.581Z,3.92
2023-06-27T06:59:53.612Z,5.75
2023-06-27T07:02:23.065Z,5.68
2023-06-27T07:04:51.160Z,3.83
2023-06-27T07:07:19.317Z,4.43
2023-06-27T07:09:47.860Z,4.97
2023-06-27T07:12:15.908Z,4.03
2023-06-27T07:14:43.873Z,4.07
2023-06-27T07:17:11.933Z,4.40
2023-06-27T07:19:43.442Z,4.40
2023-06-27T07:22:11.391Z,4.25
2023-06-27T07:24:39.322Z,6.95
2023-06-27T07:27:07.986Z,5.22
2023-06-27T07:29:35.963Z,3.70
2023-06-27T07:32:04.641Z,3.92
2023-06-27T07:34:33.395Z,4.10
2023-06-27T07:37:02.776Z,3.45
2023-06-27T07:39:30.862Z,5.80
2023-06-27T07:41:58.796Z,5.82
2023-06-27T07:44:27.276Z,3.78
2023-06-27T07:46:55.306Z,3.30
2023-06-27T07:49:23.364Z,2.83
2023-06-27T07:51:55.242Z,2.60
2023-06-27T07:54:27.964Z,2.70
2023-06-27T07:56:57.686Z,6.75
2023-06-27T07:59:25.684Z,2.67
2023-06-27T08:01:53.725Z,3.00
2023-06-27T08:04:22.284Z,3.22
2023-06-27T08:06:50.944Z,2.40
2023-06-27T08:09:18.998Z,2.83
2023-06-27T08:11:48.411Z,3.72
2023-06-27T08:14:16.419Z,2.75
2023-06-27T08:16:44.430Z,4.55
2023-06-27T08:19:12.448Z,2.63
2023-06-27T08:21:40.432Z,1.70
2023-06-27T08:24:08.441Z,2.67
2023-06-27T08:26:36.533Z,4.80
2023-06-27T08:29:06.179Z,2.50
2023-06-27T08:31:37.076Z,2.65
2023-06-27T08:34:08.065Z,2.70
2023-06-27T08:36:36.044Z,1.90
2023-06-27T08:39:06.990Z,2.92
2023-06-27T08:41:35.018Z,2.65
2023-06-27T08:44:03.438Z,2.83
2023-06-27T08:46:34.598Z,3.10
2023-06-27T08:49:05.493Z,3.17
2023-06-27T08:51:38.625Z,3.42
2023-06-27T08:54:18.883Z,2.55
2023-06-27T08:56:47.440Z,2.50
2023-06-27T08:59:21.012Z,3.13
2023-06-27T09:01:52.630Z,4.20
2023-06-27T09:04:20.812Z,3.90
2023-06-27T09:06:49.006Z,2.42
2023-06-27T09:09:17.482Z,2.88
2023-06-27T09:11:45.879Z,4.40
2023-06-27T09:14:13.869Z,2.45
2023-06-27T09:16:43.020Z,2.33
2023-06-27T09:19:12.406Z,3.95
2023-06-27T09:21:40.939Z,3.15
2023-06-27T09:24:09.841Z,4.30
2023-06-27T09:26:40.253Z,2.65
2023-06-27T09:29:08.216Z,3.50
2023-06-27T09:31:36.287Z,2.28
2023-06-27T09:34:09.551Z,3.75
2023-06-27T09:39:13.797Z,3.75
2023-06-27T09:41:46.922Z,4.13
2023-06-27T09:44:17.817Z,3.50
2023-06-27T09:46:50.066Z,2.25
2023-06-27T09:49:19.413Z,1.65
2023-06-27T09:51:51.088Z,2.20
2023-06-27T09:54:22.248Z,4.00
2023-06-27T09:56:52.590Z,2.72
2023-06-27T09:59:25.533Z,2.67
2023-06-27T10:01:55.184Z,5.18
2023-06-27T10:04:39.336Z,3.42
2023-06-27T10:07:15.951Z,2.37
2023-06-27T10:09:44.943Z,3.42
2023-06-27T10:12:15.535Z,4.63
2023-06-27T10:14:45.337Z,3.50
2023-06-27T10:17:19.715Z,5.28
2023-06-27T10:19:48.561Z,2.53
2023-06-27T10:22:21.049Z,3.55
2023-06-27T10:24:50.970Z,3.55
2023-06-27T10:27:21.735Z,2.38
2023-06-27T10:29:50.111Z,2.72
2023-06-27T10:32:18.978Z,2.85
2023-06-27T10:34:47.666Z,2.70
2023-06-27T10:37:26.227Z,4.05
2023-06-27T10:39:58.330Z,2.65
2023-06-27T10:42:30.984Z,6.45
2023-06-27T10:45:09.033Z,2.33
2023-06-27T10:47:39.989Z,4.47
2023-06-27T10:50:13.499Z,2.78
2023-06-27T10:53:00.191Z,3.88
2023-06-27T10:55:29.927Z,3.17
2023-06-27T10:58:08.129Z,2.75
2023-06-27T11:00:36.637Z,4.22
2023-06-27T11:03:07.730Z,2.85
2023-06-27T11:05:41.759Z,2.88
2023-06-27T11:08:12.816Z,2.28
2023-06-27T11:10:51.642Z,3.35
2023-06-27T11:13:23.632Z,4.28
2023-06-27T11:15:53.180Z,2.40
2023-06-27T11:18:22.200Z,2.88
2023-06-27T11:20:51.349Z,3.35
2023-06-27T11:23:21.534Z,2.92
2023-06-27T11:25:49.824Z,2.90
2023-06-27T11:28:19.623Z,3.85
2023-06-27T11:30:48.482Z,4.05
2023-06-27T11:33:20.909Z,3.10
2023-06-27T11:35:49.894Z,3.33
2023-06-27T11:38:17.871Z,3.78
2023-06-27T11:40:53.350Z,3.10
2023-06-27T11:43:21.477Z,3.25
2023-06-27T11:45:50.121Z,4.95
2023-06-27T11:48:18.555Z,2.83
2023-06-27T11:51:06.125Z,2.65
2023-06-27T11:53:34.793Z,3.00
2023-06-27T11:56:20.277Z,3.75
2023-06-27T11:58:51.986Z,6.85
2023-06-27T12:01:20.460Z,3.60
2023-06-27T12:03:50.429Z,3.08
2023-06-27T12:06:26.637Z,4.22
2023-06-27T12:08:54.723Z,2.88
2023-06-27T12:11:29.388Z,4.05
2023-06-27T12:13:57.499Z,3.33
2023-06-27T12:16:31.285Z,6.22
2023-06-27T12:19:06.060Z,2.90
2023-06-27T12:21:34.572Z,2.67
2023-06-27T12:24:02.823Z,2.80
2023-06-27T12:26:32.297Z,3.33
2023-06-27T12:29:01.440Z,3.53
2023-06-27T12:31:30.187Z,3.45
2023-06-27T12:34:00.548Z,3.47
2023-06-27T12:38:57.128Z,5.47
2023-06-27T12:41:26.495Z,4.68
2023-06-27T12:43:56.046Z,3.33
2023-06-27T12:46:24.041Z,5.73
2023-06-27T12:48:51.995Z,5.45
2023-06-27T12:51:21.232Z,4.90
2023-06-27T12:53:49.847Z,5.40
2023-06-27T12:56:18.053Z,3.28
2023-06-27T12:58:48.677Z,3.63
2023-06-27T13:01:23.286Z,2.95
2023-06-27T13:03:51.860Z,4.47
2023-06-27T13:06:20.117Z,3.50
2023-06-27T13:08:48.485Z,2.97
2023-06-27T13:11:17.060Z,3.17
2023-06-27T13:13:45.169Z,7.80
2023-06-27T13:16:16.606Z,5.38
2023-06-27T13:18:47.490Z,3.65
2023-06-27T13:21:16.162Z,5.20
2023-06-27T13:23:44.296Z,3.97
2023-06-27T13:26:12.252Z,4.18
2023-06-27T13:28:40.284Z,5.18
2023-06-27T13:31:08.463Z,5.32
2023-06-27T13:33:36.548Z,3.85
2023-06-27T13:36:06.922Z,6.20
2023-06-27T13:41:03.443Z,4.05
2023-06-27T13:43:31.658Z,8.10
2023-06-27T13:45:59.652Z,5.18
2023-06-27T13:48:27.879Z,5.20
2023-06-27T13:51:00.270Z,4.55
2023-06-27T13:53:29.601Z,4.55
2023-06-27T13:55:58.226Z,5.20
2023-06-27T13:58:26.975Z,3.00
2023-06-27T14:00:55.253Z,3.17
2023-06-27T14:03:25.647Z,3.13
2023-06-27T14:08:22.450Z,2.67
2023-06-27T14:10:52.925Z,8.02
2023-06-27T14:13:20.971Z,3.63
2023-06-27T14:15:48.935Z,2.50
2023-06-27T14:18:16.858Z,4.88
2023-06-27T14:20:45.134Z,4.15
2023-06-27T14:23:13.265Z,3.95
2023-06-27T14:25:41.292Z,6.13
2023-06-27T14:28:10.616Z,6.03
2023-06-27T14:30:38.638Z,4.80
2023-06-27T14:33:08.214Z,2.83
2023-06-27T14:35:36.383Z,5.57
2023-06-27T14:38:04.465Z,3.30
2023-06-27T14:40:32.525Z,3.63
2023-06-27T14:43:00.467Z,2.60
2023-06-27T14:45:29.985Z,2.45
2023-06-27T14:47:58.918Z,3.67
2023-06-27T14:50:27.048Z,4.00
2023-06-27T14:52:55.040Z,2.97
2023-06-27T14:55:23.062Z,2.35
2023-06-27T14:57:51.355Z,5.85
2023-06-27T15:00:20.759Z,4.47
2023-06-27T15:02:50.583Z,4.13
2023-06-27T15:05:20.209Z,3.88
2023-06-27T15:07:48.505Z,3.85
2023-06-27T15:10:16.579Z,4.03
2023-06-27T15:12:44.534Z,6.85
2023-06-27T15:15:12.473Z,3.58
2023-06-27T15:17:43.571Z,4.55
2023-06-27T15:20:14.093Z,5.10
2023-06-27T15:22:42.700Z,3.95
2023-06-27T15:25:11.113Z,4.95
2023-06-27T15:27:41.188Z,3.05
2023-06-27T15:30:10.161Z,4.47
2023-06-27T15:32:38.118Z,3.65
2023-06-27T15:35:07.833Z,3.67
2023-06-27T15:37:37.149Z,5.60
2023-06-27T15:40:05.813Z,3.22
2023-06-27T15:42:33.786Z,3.47
2023-06-27T15:45:02.575Z,3.47
2023-06-27T15:47:33.382Z,3.20
2023-06-27T15:50:03.854Z,4.25
2023-06-27T15:52:32.204Z,5.60
2023-06-27T15:55:02.415Z,4.60
2023-06-27T15:57:31.668Z,4.30
2023-06-27T15:59:59.770Z,3.55
2023-06-27T16:02:27.865Z,5.28
2023-06-27T16:04:56.000Z,3.88
2023-06-27T16:07:24.113Z,5.13
2023-06-27T16:09:52.018Z,4.45
2023-06-27T16:12:21.409Z,5.97
2023-06-27T16:14:49.454Z,3.35
2023-06-27T16:17:17.441Z,3.92
2023-06-27T16:19:45.354Z,5.35
2023-06-27T16:22:13.334Z,4.35
2023-06-27T16:24:41.236Z,7.40
2023-06-27T16:27:09.370Z,4.55
2023-06-27T16:29:39.065Z,3.97
2023-06-27T16:32:07.687Z,4.07
2023-06-27T16:34:39.818Z,5.28
2023-06-27T16:37:08.196Z,4.30
2023-06-27T16:39:37.517Z,4.45
2023-06-27T16:42:06.058Z,5.40
2023-06-27T16:44:34.137Z,4.20
2023-06-27T16:47:03.641Z,5.10
2023-06-27T16:49:31.657Z,4.10
2023-06-27T16:51:59.705Z,4.82
2023-06-27T16:54:27.687Z,4.25
2023-06-27T16:56:55.703Z,5.10
2023-06-27T16:59:23.716Z,6.40
2023-06-27T17:01:55.439Z,4.82
2023-06-27T17:04:27.688Z,5.75
2023-06-27T17:06:55.829Z,5.13
2023-06-27T17:09:23.838Z,4.10
2023-06-27T17:11:52.072Z,4.82
2023-06-27T17:14:20.865Z,4.07
2023-06-27T17:16:48.930Z,4.18
2023-06-27T17:19:16.910Z,3.78
2023-06-27T17:21:46.344Z,6.03
2023-06-27T17:24:14.463Z,3.53
2023-06-27T17:26:42.445Z,5.57
2023-06-27T17:29:10.448Z,6.05
2023-06-27T17:31:39.235Z,5.28
2023-06-27T17:34:07.404Z,5.93
2023-06-27T17:36:35.298Z,9.88
2023-06-27T17:39:04.770Z,3.58
2023-06-27T17:41:33.897Z,4.97
2023-06-27T17:44:01.841Z,4.63
2023-06-27T17:46:30.437Z,4.10
2023-06-27T17:49:00.629Z,6.45
2023-06-27T17:51:28.721Z,7.97
2023-06-27T17:53:56.664Z,4.88
2023-06-27T17:56:26.008Z,4.90
2023-06-27T17:58:54.665Z,7.32
2023-06-27T18:01:23.128Z,5.00
2023-06-27T18:03:51.009Z,6.20
2023-06-27T18:06:19.882Z,5.95
2023-06-27T18:08:47.889Z,7.05
2023-06-27T18:11:15.849Z,5.38
2023-06-27T18:13:45.209Z,5.25
2023-06-27T18:16:13.232Z,5.13
2023-06-27T18:18:41.125Z,6.88
2023-06-27T18:21:09.117Z,5.40
2023-06-27T18:23:37.042Z,6.18
2023-06-27T18:26:05.471Z,5.13
2023-06-27T18:28:34.637Z,11.80
2023-06-27T18:31:04.792Z,5.30
2023-06-27T18:33:32.882Z,5.03
2023-06-27T18:36:02.613Z,5.00
2023-06-27T18:38:32.101Z,6.35
2023-06-27T18:41:00.128Z,6.53
2023-06-27T18:43:28.158Z,5.05
2023-06-27T18:45:56.213Z,4.88
2023-06-27T18:48:25.566Z,4.72
2023-06-27T18:50:53.458Z,5.03
2023-06-27T18:53:21.501Z,4.95
2023-06-27T18:55:49.352Z,6.57
2023-06-27T18:58:17.325Z,5.85
2023-06-27T19:00:45.325Z,5.05
2023-06-27T19:03:13.368Z,4.80
2023-06-27T19:05:43.266Z,4.88
2023-06-27T19:08:11.468Z,5.38
2023-06-27T19:10:42.470Z,5.70
2023-06-27T19:13:12.834Z,5.03
2023-06-27T19:18:17.356Z,5.13
2023-06-27T19:20:47.095Z,5.50
2023-06-27T19:23:15.497Z,5.55
2023-06-27T19:25:43.444Z,4.35
2023-06-27T19:28:11.404Z,4.50
2023-06-27T19:30:39.543Z,5.93
2023-06-27T19:33:08.742Z,5.10
2023-06-27T19:35:36.918Z,5.18
2023-06-27T19:38:06.232Z,5.47
2023-06-27T19:40:35.656Z,6.10
2023-06-27T19:43:03.983Z,5.25
2023-06-27T19:45:33.384Z,5.15
2023-06-27T19:48:02.545Z,5.75
2023-06-27T19:50:30.586Z,6.45
2023-06-27T19:52:58.752Z,7.38
2023-06-27T19:55:28.041Z,5.22
2023-06-27T19:57:59.142Z,6.10
2023-06-27T20:00:27.253Z,5.03
2023-06-27T20:02:55.304Z,6.38
2023-06-27T20:05:23.594Z,5.50
2023-06-27T20:07:51.553Z,6.22
2023-06-27T20:10:20.888Z,5.68
2023-06-27T20:12:50.296Z,5.03
2023-06-27T20:15:18.296Z,6.82
2023-06-27T20:17:46.490Z,6.78
2023-06-27T20:20:15.435Z,5.63
2023-06-27T20:22:44.496Z,6.28
2023-06-27T20:25:12.479Z,5.88
2023-06-27T20:27:40.493Z,5.78
2023-06-27T20:30:11.171Z,5.80
2023-06-27T20:32:39.438Z,8.27
2023-06-27T20:35:10.433Z,6.05
2023-06-27T20:37:39.794Z,5.15
2023-06-27T20:40:09.328Z,5.72
2023-06-27T20:42:37.480Z,5.87
2023-06-27T20:45:06.631Z,6.50
2023-06-27T20:47:36.186Z,7.07
2023-06-27T20:50:04.753Z,5.20
2023-06-27T20:52:37.049Z,5.97
2023-06-27T20:55:05.317Z,5.65
2023-06-27T20:57:33.341Z,7.72
2023-06-27T21:00:01.269Z,6.43
2023-06-27T21:02:29.390Z,7.00
2023-06-27T21:04:58.949Z,6.00
2023-06-27T21:07:26.951Z,5.93
2023-06-27T21:09:54.943Z,5.43
2023-06-27T21:12:23.066Z,6.55
2023-06-27T21:14:51.108Z,7.30
2023-06-27T21:17:19.040Z,8.80
2023-06-27T21:19:47.038Z,7.25
2023-06-27T21:22:16.437Z,7.45
2023-06-27T21:24:44.368Z,7.55
2023-06-27T21:27:12.312Z,6.35
2023-06-27T21:29:40.333Z,7.13
2023-06-27T21:32:09.081Z,7.75
2023-06-27T21:34:37.200Z,6.57
2023-06-27T21:37:05.472Z,6.28
2023-06-27T21:39:34.805Z,6.35
2023-06-27T21:42:02.770Z,6.88
2023-06-27T21:44:30.741Z,5.93
2023-06-27T21:46:59.899Z,5.95
2023-06-27T21:49:27.847Z,6.97
2023-06-27T21:51:55.849Z,7.63
2023-06-27T21:54:24.260Z,7.15
2023-06-27T21:56:53.672Z,7.80
2023-06-27T21:59:21.690Z,6.03
2023-06-27T22:01:49.750Z,6.57
2023-06-27T22:04:17.934Z,7.50
2023-06-27T22:06:46.018Z,9.75
2023-06-27T22:09:14.376Z,7.47
2023-06-27T22:11:45.593Z,6.75
2023-06-27T22:14:15.022Z,7.13
2023-06-27T22:16:42.983Z,6.13
2023-06-27T22:19:10.923Z,6.55
2023-06-27T22:21:38.932Z,7.25
2023-06-27T22:24:07.636Z,7.82
2023-06-27T22:26:35.771Z,8.45
2023-06-27T22:29:03.680Z,9.07
2023-06-27T22:31:32.918Z,7.97
2023-06-27T22:34:00.858Z,8.90
2023-06-27T22:36:28.795Z,7.80
2023-06-27T22:38:56.698Z,6.85
2023-06-27T22:41:24.799Z,5.90
2023-06-27T22:43:52.774Z,6.68
2023-06-27T22:46:20.901Z,6.45
2023-06-27T22:48:50.261Z,8.10
2023-06-27T22:51:18.167Z,6.22
2023-06-27T22:53:46.185Z,6.57
2023-06-27T22:56:14.325Z,9.75
2023-06-27T22:58:42.987Z,8.50
2023-06-27T23:01:11.571Z,8.13
2023-06-27T23:03:39.672Z,8.57
2023-06-27T23:06:09.441Z,9.15
2023-06-27T23:08:37.368Z,7.57
2023-06-27T23:11:05.397Z,8.88
2023-06-27T23:13:33.304Z,9.25
2023-06-27T23:16:01.314Z,9.80
2023-06-27T23:18:35.336Z,6.80
2023-06-27T23:21:03.429Z,6.47
2023-06-27T23:23:38.832Z,7.32
2023-06-27T23:26:09.992Z,6.28
2023-06-27T23:28:43.427Z,8.25
2023-06-27T23:31:12.157Z,9.05
2023-06-27T23:33:41.367Z,8.18
2023-06-27T23:36:11.517Z,8.82
2023-06-27T23:38:41.092Z,7.38
2023-06-27T23:41:09.010Z,7.10
2023-06-27T23:43:37.016Z,8.10
2023-06-27T23:46:05.030Z,8.73
2023-06-27T23:48:32.993Z,8.45
2023-06-27T23:51:00.895Z,8.90
2023-06-27T23:53:28.833Z,8.23
2023-06-27T23:55:58.148Z,9.02
2023-06-27T23:58:26.055Z,8.60
